createdAt,value
2022-10-01T00:00:52.820Z,16.03
2022-10-01T00:03:20.238Z,16.01
2022-10-01T00:05:46.968Z,15.97
2022-10-01T00:08:16.766Z,15.99
2022-10-01T00:10:44.139Z,16.01
2022-10-01T00:13:11.400Z,16.02
2022-10-01T00:15:41.128Z,16.01
2022-10-01T00:18:08.970Z,16.01
2022-10-01T00:20:35.495Z,15.99
2022-10-01T00:23:02.047Z,16.00
2022-10-01T00:25:28.552Z,15.97
2022-10-01T00:27:55.488Z,15.89
2022-10-01T00:30:22.179Z,15.81
2022-10-01T00:32:48.668Z,15.77
2022-10-01T00:35:15.432Z,15.75
2022-10-01T00:37:42.611Z,15.70
2022-10-01T00:40:09.569Z,15.66
2022-10-01T00:42:36.088Z,15.59
2022-10-01T00:45:02.601Z,15.50
2022-10-01T00:47:33.849Z,15.42
2022-10-01T00:50:33.148Z,15.36
2022-10-01T00:53:02.222Z,15.25
2022-10-01T00:55:36.578Z,15.20
2022-10-01T00:58:04.608Z,15.16
2022-10-01T01:00:31.671Z,15.14
2022-10-01T01:02:58.220Z,15.13
2022-10-01T01:05:24.808Z,15.16
2022-10-01T01:07:52.780Z,15.17
2022-10-01T01:10:30.924Z,15.19
2022-10-01T01:13:13.380Z,15.20
2022-10-01T01:15:49.883Z,15.23
2022-10-01T01:18:40.538Z,15.28
2022-10-01T01:21:22.208Z,15.34
2022-10-01T01:24:24.213Z,15.37
2022-10-01T01:27:27.717Z,15.40
2022-10-01T01:30:03.741Z,15.41
2022-10-01T01:32:35.548Z,15.40
2022-10-01T01:35:02.364Z,15.38
2022-10-01T01:37:34.667Z,15.37
2022-10-01T01:40:02.925Z,15.36
2022-10-01T01:42:32.939Z,15.35
2022-10-01T01:45:01.146Z,15.30
2022-10-01T01:47:32.879Z,15.22
2022-10-01T01:50:00.571Z,15.12
2022-10-01T01:52:27.731Z,15.01
2022-10-01T01:54:54.465Z,14.92
2022-10-01T01:57:21.157Z,14.91
2022-10-01T01:59:47.731Z,14.91
2022-10-01T02:02:19.226Z,14.95
2022-10-01T02:04:54.714Z,14.98
2022-10-01T02:07:38.500Z,15.00
2022-10-01T02:10:16.971Z,15.00
2022-10-01T02:13:04.830Z,15.03
2022-10-01T02:15:41.326Z,15.05
2022-10-01T02:18:07.811Z,15.07
2022-10-01T02:20:42.418Z,15.04
2022-10-01T02:23:12.231Z,15.00
2022-10-01T02:25:43.513Z,14.98
2022-10-01T02:28:12.362Z,14.95
2022-10-01T02:30:39.472Z,14.93
2022-10-01T02:33:07.166Z,14.87
2022-10-01T02:35:35.094Z,14.80
2022-10-01T02:38:04.234Z,14.75
2022-10-01T02:40:33.691Z,14.69
2022-10-01T02:43:03.854Z,14.60
2022-10-01T02:45:32.494Z,14.58
2022-10-01T02:48:03.371Z,14.55
2022-10-01T02:50:34.940Z,14.54
2022-10-01T02:53:31.007Z,14.54
2022-10-01T02:55:58.503Z,14.52
2022-10-01T02:58:25.129Z,14.58
2022-10-01T03:00:52.661Z,14.63
2022-10-01T03:03:19.524Z,14.67
2022-10-01T03:05:46.022Z,14.72
2022-10-01T03:08:12.573Z,14.74
2022-10-01T03:10:41.505Z,14.73
2022-10-01T03:13:11.204Z,14.71
2022-10-01T03:15:37.808Z,14.71
2022-10-01T03:18:04.367Z,14.70
2022-10-01T03:20:30.874Z,14.69
2022-10-01T03:22:57.375Z,14.69
2022-10-01T03:25:23.876Z,14.68
2022-10-01T03:27:50.431Z,14.67
2022-10-01T03:30:16.999Z,14.66
2022-10-01T03:32:43.574Z,14.63
2022-10-01T03:35:10.092Z,14.58
2022-10-01T03:37:36.653Z,14.54
2022-10-01T03:40:03.484Z,14.51
2022-10-01T03:42:30.016Z,14.46
2022-10-01T03:44:56.521Z,14.40
2022-10-01T03:47:24.387Z,14.39
2022-10-01T03:49:50.924Z,14.36
2022-10-01T03:52:17.923Z,14.37
2022-10-01T03:54:44.526Z,14.37
2022-10-01T03:57:11.015Z,14.39
2022-10-01T03:59:37.579Z,14.39
2022-10-01T04:02:04.208Z,14.39
2022-10-01T04:04:31.087Z,14.42
2022-10-01T04:06:57.591Z,14.47
2022-10-01T04:09:24.100Z,14.52
2022-10-01T04:11:50.622Z,14.51
2022-10-01T04:14:17.179Z,14.52
2022-10-01T04:16:44.656Z,14.46
2022-10-01T04:19:11.212Z,14.39
2022-10-01T04:21:39.171Z,14.35
2022-10-01T04:24:05.875Z,14.27
2022-10-01T04:26:32.409Z,14.21
2022-10-01T04:28:58.917Z,14.19
2022-10-01T04:31:25.671Z,14.18
2022-10-01T04:33:54.152Z,14.16
2022-10-01T04:36:20.834Z,14.11
2022-10-01T04:38:47.591Z,14.06
2022-10-01T04:41:14.912Z,13.99
2022-10-01T04:43:41.515Z,13.97
2022-10-01T04:46:08.017Z,13.96
2022-10-01T04:48:34.556Z,13.94
2022-10-01T04:51:01.042Z,13.93
2022-10-01T04:53:27.589Z,13.89
2022-10-01T04:55:54.143Z,13.86
2022-10-01T04:58:20.694Z,13.84
2022-10-01T05:00:48.749Z,13.83
2022-10-01T05:03:15.504Z,13.80
2022-10-01T05:05:42.012Z,13.79
2022-10-01T05:08:08.553Z,13.80
2022-10-01T05:10:35.545Z,13.75
2022-10-01T05:13:02.484Z,13.73
2022-10-01T05:15:30.232Z,13.73
2022-10-01T05:17:57.493Z,13.73
2022-10-01T05:20:26.631Z,13.75
2022-10-01T05:22:53.473Z,13.76
2022-10-01T05:25:20.494Z,13.73
2022-10-01T05:27:47.296Z,13.73
2022-10-01T05:30:20.142Z,13.70
2022-10-01T05:32:54.272Z,13.65
2022-10-01T05:35:21.098Z,13.64
2022-10-01T05:37:47.677Z,13.64
2022-10-01T05:40:14.202Z,13.64
2022-10-01T05:42:46.169Z,13.65
2022-10-01T05:45:12.713Z,13.66
2022-10-01T05:47:43.758Z,13.71
2022-10-01T05:50:10.706Z,13.72
2022-10-01T05:52:37.212Z,13.76
2022-10-01T05:55:04.207Z,13.81
2022-10-01T05:57:31.377Z,13.83
2022-10-01T05:59:58.027Z,13.89
2022-10-01T06:02:24.710Z,13.92
2022-10-01T06:04:51.562Z,13.99
2022-10-01T06:07:18.100Z,14.03
2022-10-01T06:09:45.222Z,14.07
2022-10-01T06:12:13.654Z,14.09
2022-10-01T06:14:42.956Z,14.12
2022-10-01T06:17:09.564Z,14.14
2022-10-01T06:19:36.080Z,14.19
2022-10-01T06:22:02.586Z,14.23
2022-10-01T06:24:30.205Z,14.22
2022-10-01T06:26:57.187Z,14.26
2022-10-01T06:29:24.099Z,14.29
2022-10-01T06:31:51.452Z,14.35
2022-10-01T06:34:17.985Z,14.41
2022-10-01T06:36:44.490Z,14.49
2022-10-01T06:39:10.991Z,14.58
2022-10-01T06:41:37.707Z,14.69
2022-10-01T06:44:04.309Z,14.79
2022-10-01T06:46:31.866Z,14.89
2022-10-01T06:48:58.347Z,15.05
2022-10-01T06:51:44.806Z,15.19
2022-10-01T06:54:11.416Z,15.33
2022-10-01T06:56:37.999Z,15.43
2022-10-01T06:59:04.537Z,15.50
2022-10-01T07:01:32.971Z,15.59
2022-10-01T07:03:59.797Z,15.68
2022-10-01T07:06:26.360Z,15.78
2022-10-01T07:08:52.900Z,15.87
2022-10-01T07:11:19.953Z,15.95
2022-10-01T07:13:49.036Z,16.07
2022-10-01T07:16:17.731Z,16.22
2022-10-01T07:18:44.321Z,16.35
2022-10-01T07:21:10.889Z,16.45
2022-10-01T07:23:37.388Z,16.59
2022-10-01T07:26:05.591Z,16.72
2022-10-01T07:28:32.121Z,16.82
2022-10-01T07:31:07.241Z,16.89
2022-10-01T07:33:34.073Z,16.93
2022-10-01T07:36:02.347Z,16.97
2022-10-01T07:38:29.046Z,17.01
2022-10-01T07:40:55.609Z,17.10
2022-10-01T07:43:22.517Z,17.14
2022-10-01T07:45:50.108Z,17.17
2022-10-01T07:48:16.890Z,17.32
2022-10-01T07:50:47.289Z,17.55
2022-10-01T07:53:14.150Z,17.77
2022-10-01T07:55:40.663Z,17.96
2022-10-01T07:58:07.365Z,18.08
2022-10-01T08:00:34.123Z,18.21
2022-10-01T08:03:00.792Z,18.41
2022-10-01T08:05:33.435Z,18.58
2022-10-01T08:08:02.662Z,18.74
2022-10-01T08:10:30.006Z,18.96
2022-10-01T08:13:08.746Z,19.12
2022-10-01T08:15:36.027Z,19.25
2022-10-01T08:18:03.426Z,19.33
2022-10-01T08:20:30.341Z,19.37
2022-10-01T08:23:07.713Z,19.46
2022-10-01T08:25:34.508Z,19.55
2022-10-01T08:28:01.485Z,19.62
2022-10-01T08:30:29.022Z,19.66
2022-10-01T08:32:56.928Z,19.77
2022-10-01T08:35:24.853Z,19.79
2022-10-01T08:37:51.399Z,19.85
2022-10-01T08:40:19.627Z,19.92
2022-10-01T08:42:54.814Z,19.99
2022-10-01T08:45:30.307Z,20.06
2022-10-01T08:48:09.253Z,20.12
2022-10-01T08:51:08.017Z,20.19
2022-10-01T08:53:41.812Z,20.27
2022-10-01T08:56:19.506Z,20.37
2022-10-01T08:58:49.472Z,20.44
2022-10-01T09:01:16.017Z,20.54
2022-10-01T09:03:42.620Z,20.60
2022-10-01T09:06:18.187Z,20.69
2022-10-01T09:09:09.549Z,20.79
2022-10-01T09:11:52.870Z,20.90
2022-10-01T09:14:31.657Z,20.97
2022-10-01T09:17:35.940Z,21.12
2022-10-01T09:20:24.025Z,21.31
2022-10-01T09:23:16.126Z,21.51
2022-10-01T09:25:43.679Z,21.58
2022-10-01T09:28:23.613Z,21.58
2022-10-01T09:30:57.039Z,21.58
2022-10-01T09:33:29.523Z,21.57
2022-10-01T09:36:13.256Z,21.53
2022-10-01T09:38:41.943Z,21.50
2022-10-01T09:41:10.656Z,21.46
2022-10-01T09:43:39.557Z,21.45
2022-10-01T09:46:13.435Z,21.42
2022-10-01T09:48:55.282Z,21.41
2022-10-01T09:51:23.067Z,21.44
2022-10-01T09:54:15.247Z,21.60
2022-10-01T09:56:48.010Z,21.76
2022-10-01T09:59:22.848Z,21.88
2022-10-01T10:01:56.009Z,21.96
2022-10-01T10:04:23.976Z,22.01
2022-10-01T10:06:53.309Z,22.06
2022-10-01T10:09:24.436Z,22.08
2022-10-01T10:11:51.653Z,22.10
2022-10-01T10:14:25.461Z,22.12
2022-10-01T10:16:52.004Z,22.07
2022-10-01T10:19:27.216Z,22.02
2022-10-01T10:22:00.600Z,21.94
2022-10-01T10:24:32.545Z,21.93
2022-10-01T10:27:01.046Z,21.88
2022-10-01T10:29:31.265Z,21.82
2022-10-01T10:31:59.163Z,21.73
2022-10-01T10:34:40.829Z,21.67
2022-10-01T10:37:12.412Z,21.59
2022-10-01T10:39:41.099Z,21.59
2022-10-01T10:42:08.425Z,21.58
2022-10-01T10:44:39.555Z,21.59
2022-10-01T10:47:12.004Z,21.61
2022-10-01T10:49:43.208Z,21.62
2022-10-01T10:52:30.337Z,21.66
2022-10-01T10:54:58.976Z,21.69
2022-10-01T10:57:28.140Z,21.71
2022-10-01T10:59:59.547Z,21.75
2022-10-01T11:02:31.181Z,21.77
2022-10-01T11:05:00.007Z,21.84
2022-10-01T11:07:27.496Z,21.89
2022-10-01T11:10:14.492Z,21.91
2022-10-01T11:12:44.623Z,21.91
2022-10-01T11:15:15.176Z,21.90
2022-10-01T11:17:51.088Z,21.86
2022-10-01T11:20:32.377Z,21.85
2022-10-01T11:23:17.597Z,21.83
2022-10-01T11:26:10.331Z,21.79
2022-10-01T11:28:46.121Z,21.78
2022-10-01T11:31:15.454Z,21.75
2022-10-01T11:34:08.528Z,21.71
2022-10-01T11:37:20.329Z,21.65
2022-10-01T11:39:48.777Z,21.60
2022-10-01T11:42:22.513Z,21.62
2022-10-01T11:44:57.421Z,21.63
2022-10-01T11:47:41.944Z,21.60
2022-10-01T11:50:16.410Z,21.60
2022-10-01T11:52:52.816Z,21.60
2022-10-01T11:55:40.570Z,21.60
2022-10-01T11:58:31.034Z,21.64
2022-10-01T12:01:10.074Z,21.67
2022-10-01T12:03:51.827Z,21.65
2022-10-01T12:06:30.481Z,21.62
2022-10-01T12:09:06.380Z,21.58
2022-10-01T12:11:52.681Z,21.52
2022-10-01T12:14:23.503Z,21.44
2022-10-01T12:16:52.880Z,21.41
2022-10-01T12:19:31.955Z,21.38
2022-10-01T12:22:16.129Z,21.36
2022-10-01T12:24:44.252Z,21.33
2022-10-01T12:27:20.009Z,21.29
2022-10-01T12:29:54.763Z,21.27
2022-10-01T12:32:36.448Z,21.22
2022-10-01T12:35:21.786Z,21.17
2022-10-01T12:38:23.692Z,21.13
2022-10-01T12:40:52.918Z,21.05
2022-10-01T12:43:28.426Z,21.08
2022-10-01T12:45:55.164Z,21.09
2022-10-01T12:48:43.273Z,21.10
2022-10-01T12:51:20.393Z,21.09
2022-10-01T12:54:05.664Z,21.09
2022-10-01T12:56:37.433Z,21.13
2022-10-01T12:59:11.282Z,21.16
2022-10-01T13:01:37.779Z,21.16
2022-10-01T13:04:18.301Z,21.18
2022-10-01T13:07:16.194Z,21.18
2022-10-01T13:09:55.688Z,21.15
2022-10-01T13:12:48.536Z,21.15
2022-10-01T13:15:21.858Z,21.15
2022-10-01T13:18:06.495Z,21.14
2022-10-01T13:20:41.060Z,21.13
2022-10-01T13:23:23.271Z,21.12
2022-10-01T13:26:05.228Z,21.12
2022-10-01T13:28:43.778Z,21.12
2022-10-01T13:31:14.795Z,21.11
2022-10-01T13:33:41.923Z,21.09
2022-10-01T13:36:10.646Z,21.08
2022-10-01T13:38:46.149Z,21.05
2022-10-01T13:41:22.811Z,21.06
2022-10-01T13:44:18.525Z,21.06
2022-10-01T13:47:03.134Z,21.07
2022-10-01T13:49:30.875Z,21.05
2022-10-01T13:51:58.540Z,21.05
2022-10-01T13:54:31.113Z,21.05
2022-10-01T13:57:08.575Z,21.07
2022-10-01T13:59:36.585Z,21.05
2022-10-01T14:02:20.099Z,21.06
2022-10-01T14:04:48.204Z,21.03
2022-10-01T14:07:18.144Z,21.03
2022-10-01T14:09:46.540Z,21.01
2022-10-01T14:12:57.891Z,20.99
2022-10-01T14:15:45.615Z,20.99
2022-10-01T14:18:17.431Z,20.99
2022-10-01T14:21:13.733Z,20.99
2022-10-01T14:23:46.338Z,20.99
2022-10-01T14:26:31.538Z,20.97
2022-10-01T14:29:13.689Z,20.97
2022-10-01T14:31:45.544Z,20.97
2022-10-01T14:34:17.159Z,20.96
2022-10-01T14:36:51.375Z,20.96
2022-10-01T14:39:20.485Z,20.95
2022-10-01T14:41:49.209Z,20.95
2022-10-01T14:44:26.172Z,20.94
2022-10-01T14:46:55.256Z,20.95
2022-10-01T14:49:26.361Z,20.94
2022-10-01T14:51:56.664Z,20.93
2022-10-01T14:54:23.756Z,20.92
2022-10-01T14:56:50.971Z,20.91
2022-10-01T14:59:22.807Z,20.91
2022-10-01T15:02:01.474Z,20.89
2022-10-01T15:04:28.344Z,20.87
2022-10-01T15:06:55.281Z,20.86
2022-10-01T15:09:21.881Z,20.82
2022-10-01T15:11:50.600Z,20.79
2022-10-01T15:14:25.038Z,20.70
2022-10-01T15:16:51.973Z,20.63
2022-10-01T15:19:21.045Z,20.56
2022-10-01T15:21:51.580Z,20.44
2022-10-01T15:24:26.261Z,20.38
2022-10-01T15:26:54.455Z,20.30
2022-10-01T15:29:21.110Z,20.28
2022-10-01T15:31:49.230Z,20.24
2022-10-01T15:34:18.344Z,20.15
2022-10-01T15:36:46.126Z,20.08
2022-10-01T15:39:24.703Z,19.99
2022-10-01T15:41:52.551Z,19.97
2022-10-01T15:44:48.346Z,19.95
2022-10-01T15:47:34.431Z,19.94
2022-10-01T15:50:09.844Z,19.89
2022-10-01T15:52:51.560Z,19.81
2022-10-01T15:55:21.434Z,19.73
2022-10-01T15:57:50.854Z,19.70
2022-10-01T16:00:26.472Z,19.68
2022-10-01T16:02:53.365Z,19.65
2022-10-01T16:05:27.270Z,19.61
2022-10-01T16:07:58.400Z,19.60
2022-10-01T16:10:37.543Z,19.60
2022-10-01T16:13:26.745Z,19.58
2022-10-01T16:16:22.599Z,19.57
2022-10-01T16:18:56.148Z,19.59
2022-10-01T16:21:22.860Z,19.58
2022-10-01T16:23:54.516Z,19.57
2022-10-01T16:26:27.637Z,19.52
2022-10-01T16:29:18.402Z,19.53
2022-10-01T16:31:45.386Z,19.53
2022-10-01T16:34:13.367Z,19.52
2022-10-01T16:36:39.935Z,19.48
2022-10-01T16:39:06.693Z,19.46
2022-10-01T16:41:36.550Z,19.45
2022-10-01T16:44:05.236Z,19.40
2022-10-01T16:46:32.986Z,19.36
2022-10-01T16:48:59.764Z,19.34
2022-10-01T16:51:27.074Z,19.33
2022-10-01T16:53:55.003Z,19.32
2022-10-01T16:56:26.254Z,19.32
2022-10-01T16:58:53.809Z,19.29
2022-10-01T17:01:20.484Z,19.24
2022-10-01T17:03:47.149Z,19.18
2022-10-01T17:06:13.650Z,19.14
2022-10-01T17:08:40.302Z,19.14
2022-10-01T17:11:10.618Z,19.12
2022-10-01T17:13:39.077Z,19.07
2022-10-01T17:16:06.658Z,19.04
2022-10-01T17:18:33.287Z,19.02
2022-10-01T17:21:02.888Z,19.01
2022-10-01T17:23:29.436Z,18.98
2022-10-01T17:25:56.030Z,18.97
2022-10-01T17:28:24.407Z,18.95
2022-10-01T17:30:51.100Z,18.94
2022-10-01T17:33:19.332Z,18.94
2022-10-01T17:35:51.614Z,18.91
2022-10-01T17:38:19.396Z,18.88
2022-10-01T17:40:46.113Z,18.86
2022-10-01T17:43:14.333Z,18.86
2022-10-01T17:45:41.428Z,18.83
2022-10-01T17:48:08.442Z,18.84
2022-10-01T17:50:35.675Z,18.82
2022-10-01T17:53:02.249Z,18.80
2022-10-01T17:55:29.075Z,18.78
2022-10-01T17:57:55.917Z,18.77
2022-10-01T18:00:22.475Z,18.77
2022-10-01T18:02:49.165Z,18.74
2022-10-01T18:05:17.250Z,18.72
2022-10-01T18:07:43.764Z,18.71
2022-10-01T18:10:13.051Z,18.69
2022-10-01T18:12:39.991Z,18.62
2022-10-01T18:15:07.137Z,18.57
2022-10-01T18:17:36.373Z,18.54
2022-10-01T18:20:07.654Z,18.51
2022-10-01T18:22:38.053Z,18.46
2022-10-01T18:25:05.669Z,18.45
2022-10-01T18:27:32.204Z,18.42
2022-10-01T18:29:58.696Z,18.42
2022-10-01T18:32:27.866Z,18.42
2022-10-01T18:34:55.728Z,18.39
2022-10-01T18:37:30.541Z,18.38
2022-10-01T18:40:12.918Z,18.36
2022-10-01T18:43:04.002Z,18.34
2022-10-01T18:45:49.442Z,18.32
2022-10-01T18:48:21.789Z,18.32
2022-10-01T18:50:54.273Z,18.32
2022-10-01T18:53:49.975Z,18.30
2022-10-01T18:56:37.553Z,18.30
2022-10-01T18:59:42.560Z,18.29
2022-10-01T19:02:50.098Z,18.28
2022-10-01T19:06:24.583Z,18.26
2022-10-01T19:08:57.238Z,18.23
2022-10-01T19:11:29.524Z,18.23
2022-10-01T19:14:10.809Z,18.25
2022-10-01T19:17:01.084Z,18.24
2022-10-01T19:19:38.653Z,18.21
2022-10-01T19:22:28.430Z,18.20
2022-10-01T19:25:05.661Z,18.17
2022-10-01T19:27:57.157Z,18.14
2022-10-01T19:30:23.725Z,18.09
2022-10-01T19:32:56.824Z,18.06
2022-10-01T19:35:29.841Z,18.01
2022-10-01T19:38:08.448Z,17.93
2022-10-01T19:40:56.557Z,17.89
2022-10-01T19:43:32.920Z,17.74
2022-10-01T19:46:06.348Z,17.64
2022-10-01T19:48:53.026Z,17.59
2022-10-01T19:51:22.475Z,17.59
2022-10-01T19:53:52.946Z,17.56
2022-10-01T19:56:24.432Z,17.54
2022-10-01T19:58:51.002Z,17.53
2022-10-01T20:01:21.955Z,17.53
2022-10-01T20:03:59.650Z,17.49
2022-10-01T20:06:38.161Z,17.45
2022-10-01T20:09:23.515Z,17.35
2022-10-01T20:11:59.153Z,17.19
2022-10-01T20:15:07.512Z,17.16
2022-10-01T20:17:55.275Z,17.14
2022-10-01T20:20:37.094Z,17.15
2022-10-01T20:23:03.477Z,17.12
2022-10-01T20:25:35.948Z,17.11
2022-10-01T20:28:44.745Z,17.10
2022-10-01T20:31:16.307Z,17.03
2022-10-01T20:33:52.064Z,17.00
2022-10-01T20:36:35.151Z,16.96
2022-10-01T20:39:41.193Z,16.94
2022-10-01T20:42:16.097Z,16.89
2022-10-01T20:44:42.840Z,16.84
2022-10-01T20:47:43.657Z,16.83
2022-10-01T20:50:15.593Z,16.81
2022-10-01T20:52:52.174Z,16.79
2022-10-01T20:55:29.447Z,16.77
2022-10-01T20:57:58.812Z,16.69
2022-10-01T21:00:27.207Z,16.63
2022-10-01T21:03:05.512Z,16.59
2022-10-01T21:05:37.316Z,16.54
2022-10-01T21:08:11.029Z,16.48
2022-10-01T21:10:51.151Z,16.46
2022-10-01T21:13:30.207Z,16.46
2022-10-01T21:16:05.617Z,16.43
2022-10-01T21:19:13.088Z,16.40
2022-10-01T21:22:01.851Z,16.37
2022-10-01T21:24:28.415Z,16.34
2022-10-01T21:27:07.953Z,16.33
2022-10-01T21:30:02.896Z,16.34
2022-10-01T21:33:01.366Z,16.34
2022-10-01T21:35:43.911Z,16.32
2022-10-01T21:38:34.307Z,16.32
2022-10-01T21:41:27.620Z,16.31
2022-10-01T21:44:31.814Z,16.21
2022-10-01T21:47:19.561Z,16.18
2022-10-01T21:49:53.337Z,16.19
2022-10-01T21:52:42.966Z,16.15
2022-10-01T21:55:18.379Z,16.11
2022-10-01T21:58:23.362Z,16.10
2022-10-01T22:01:15.977Z,16.09
2022-10-01T22:03:47.989Z,16.10
2022-10-01T22:06:45.162Z,16.15
2022-10-01T22:09:29.928Z,16.20
2022-10-01T22:11:59.231Z,16.20
2022-10-01T22:14:26.573Z,16.21
2022-10-01T22:17:07.904Z,16.22
2022-10-01T22:19:37.342Z,16.24
2022-10-01T22:22:18.395Z,16.23
2022-10-01T22:24:49.310Z,16.26
2022-10-01T22:27:25.268Z,16.28
2022-10-01T22:30:19.845Z,16.29
2022-10-01T22:32:51.836Z,16.26
2022-10-01T22:35:47.543Z,16.24
2022-10-01T22:38:21.675Z,16.23
2022-10-01T22:40:53.732Z,16.18
2022-10-01T22:43:20.396Z,16.16
2022-10-01T22:46:19.908Z,16.16
2022-10-01T22:48:55.528Z,16.14
2022-10-01T22:51:24.938Z,16.10
2022-10-01T22:54:03.860Z,16.09
2022-10-01T22:56:40.535Z,16.06
2022-10-01T22:59:19.805Z,16.02
2022-10-01T23:02:00.092Z,16.01
2022-10-01T23:04:36.107Z,15.94
2022-10-01T23:07:24.456Z,15.93
2022-10-01T23:09:58.102Z,15.89
2022-10-01T23:12:53.734Z,15.88
2022-10-01T23:15:26.066Z,15.88
2022-10-01T23:18:47.201Z,15.87
2022-10-01T23:21:13.685Z,15.89
2022-10-01T23:23:40.918Z,15.92
2022-10-01T23:26:35.301Z,15.95
2022-10-01T23:29:21.881Z,15.95
2022-10-01T23:32:06.717Z,15.98
2022-10-01T23:34:39.223Z,15.96
2022-10-01T23:37:05.783Z,15.93
2022-10-01T23:39:44.660Z,15.90
2022-10-01T23:42:22.765Z,15.86
2022-10-01T23:45:04.101Z,15.87
2022-10-01T23:47:40.357Z,15.86
2022-10-01T23:50:08.555Z,15.87
2022-10-01T23:52:41.304Z,15.86
2022-10-01T23:55:55.161Z,15.87
2022-10-01T23:58:22.364Z,15.83
